createdAt,value
2022-12-31T00:01:19.371Z,22.25
2022-12-31T00:03:48.507Z,17.85
2022-12-31T00:06:21.250Z,21.55
2022-12-31T00:08:51.075Z,17.83
2022-12-31T00:11:39.011Z,21.23
2022-12-31T00:14:08.071Z,14.38
2022-12-31T00:16:40.675Z,14.40
2022-12-31T00:19:11.757Z,15.20
2022-12-31T00:21:40.917Z,12.55
2022-12-31T00:24:09.969Z,21.83
2022-12-31T00:26:38.670Z,24.92
2022-12-31T00:29:07.678Z,24.77
2022-12-31T00:31:40.276Z,17.13
2022-12-31T00:34:09.083Z,17.27
2022-12-31T00:36:39.906Z,24.88
2022-12-31T00:39:09.828Z,17.80
2022-12-31T00:41:38.897Z,27.05
2022-12-31T00:44:07.831Z,29.00
2022-12-31T00:49:05.501Z,23.10
2022-12-31T00:51:34.101Z,24.70
2022-12-31T00:54:02.639Z,28.63
2022-12-31T00:56:32.606Z,26.60
2022-12-31T00:59:02.931Z,23.55
2022-12-31T01:01:34.201Z,26.90
2022-12-31T01:04:06.968Z,24.17
2022-12-31T01:06:36.293Z,28.17
2022-12-31T01:09:06.140Z,24.88
2022-12-31T01:11:35.094Z,27.20
2022-12-31T01:14:05.929Z,29.05
2022-12-31T01:16:39.950Z,26.88
2022-12-31T01:19:13.617Z,22.02
2022-12-31T01:21:43.895Z,22.67
2022-12-31T01:24:13.280Z,20.85
2022-12-31T01:26:42.076Z,19.50
2022-12-31T01:29:11.898Z,26.40
2022-12-31T01:34:11.066Z,27.92
2022-12-31T01:36:40.257Z,19.35
2022-12-31T01:39:10.952Z,27.38
2022-12-31T01:41:41.893Z,17.42
2022-12-31T01:44:48.027Z,26.13
2022-12-31T01:47:21.444Z,20.98
2022-12-31T01:49:55.814Z,30.15
2022-12-31T01:52:28.589Z,22.85
2022-12-31T01:55:02.425Z,26.27
2022-12-31T01:57:32.385Z,22.88
2022-12-31T02:00:03.045Z,22.35
2022-12-31T02:02:33.591Z,17.42
2022-12-31T02:05:07.097Z,21.42
2022-12-31T02:07:35.818Z,32.63
2022-12-31T02:10:05.939Z,23.15
2022-12-31T02:12:34.696Z,18.88
2022-12-31T02:15:03.422Z,17.65
2022-12-31T02:17:36.600Z,25.08
2022-12-31T02:20:28.810Z,27.73
2022-12-31T02:23:46.368Z,20.63
2022-12-31T02:26:43.420Z,21.85
2022-12-31T02:29:40.249Z,18.50
2022-12-31T02:32:17.613Z,26.83
2022-12-31T02:34:50.093Z,20.75
2022-12-31T02:37:21.324Z,23.45
2022-12-31T02:39:50.758Z,23.58
2022-12-31T02:42:19.384Z,21.95
2022-12-31T02:44:47.991Z,20.17
2022-12-31T02:47:28.230Z,20.80
2022-12-31T02:50:12.075Z,22.48
2022-12-31T02:52:50.418Z,25.17
2022-12-31T02:55:27.226Z,17.92
2022-12-31T02:58:01.460Z,16.42
2022-12-31T03:00:50.931Z,14.98
2022-12-31T03:03:40.838Z,20.83
2022-12-31T03:06:10.624Z,15.93
2022-12-31T03:11:39.550Z,16.80
2022-12-31T03:14:08.342Z,18.17
2022-12-31T03:16:37.244Z,17.52
2022-12-31T03:19:25.109Z,23.02
2022-12-31T03:22:11.253Z,17.27
2022-12-31T03:24:57.117Z,15.82
2022-12-31T03:27:25.937Z,23.13
2022-12-31T03:29:54.607Z,15.15
2022-12-31T03:32:23.224Z,22.45
2022-12-31T03:34:53.147Z,14.55
2022-12-31T03:37:21.729Z,14.93
2022-12-31T03:39:51.413Z,14.15
2022-12-31T03:44:48.412Z,13.25
2022-12-31T03:47:17.059Z,17.15
2022-12-31T03:49:45.840Z,15.60
2022-12-31T03:52:15.846Z,20.35
2022-12-31T03:54:44.389Z,18.13
2022-12-31T03:57:13.474Z,13.43
2022-12-31T03:59:42.237Z,21.08
2022-12-31T04:02:10.972Z,16.43
2022-12-31T04:04:39.733Z,16.10
2022-12-31T04:07:08.251Z,17.42
2022-12-31T04:09:38.346Z,15.20
2022-12-31T04:12:07.763Z,20.67
2022-12-31T04:14:36.377Z,15.52
2022-12-31T04:19:51.502Z,24.23
2022-12-31T04:22:20.326Z,15.45
2022-12-31T04:24:50.310Z,16.07
2022-12-31T04:27:18.919Z,18.05
2022-12-31T04:29:47.592Z,16.88
2022-12-31T04:32:16.166Z,17.65
2022-12-31T04:34:44.979Z,13.30
2022-12-31T04:37:13.560Z,19.25
2022-12-31T04:39:42.286Z,13.48
2022-12-31T04:42:12.640Z,21.25
2022-12-31T04:44:41.241Z,19.83
2022-12-31T04:47:09.793Z,17.50
2022-12-31T04:49:38.534Z,20.48
2022-12-31T04:52:07.291Z,16.92
2022-12-31T04:54:36.086Z,13.80
2022-12-31T04:57:06.536Z,14.20
2022-12-31T04:59:36.728Z,22.50
2022-12-31T05:02:05.567Z,15.35
2022-12-31T05:04:34.212Z,11.17
2022-12-31T05:07:02.791Z,13.40
2022-12-31T05:09:31.596Z,16.83
2022-12-31T05:12:00.151Z,15.57
2022-12-31T05:14:28.823Z,17.15
2022-12-31T05:16:59.469Z,20.10
2022-12-31T05:19:28.165Z,21.73
2022-12-31T05:22:14.325Z,17.42
2022-12-31T05:24:43.201Z,17.52
2022-12-31T05:27:11.764Z,17.50
2022-12-31T05:29:40.385Z,16.60
2022-12-31T05:32:10.485Z,20.17
2022-12-31T05:34:39.077Z,16.42
2022-12-31T05:37:07.721Z,16.67
2022-12-31T05:39:37.910Z,18.33
2022-12-31T05:42:06.659Z,16.88
2022-12-31T05:44:35.369Z,20.33
2022-12-31T05:47:04.428Z,16.23
2022-12-31T05:49:34.808Z,17.50
2022-12-31T05:52:03.545Z,23.38
2022-12-31T05:54:32.154Z,15.55
2022-12-31T05:57:00.812Z,19.02
2022-12-31T05:59:30.619Z,18.83
2022-12-31T06:04:27.612Z,21.10
2022-12-31T06:06:57.683Z,20.38
2022-12-31T06:09:26.609Z,19.90
2022-12-31T06:11:55.458Z,18.83
2022-12-31T06:14:24.203Z,18.15
2022-12-31T06:16:52.728Z,19.73
2022-12-31T06:19:21.464Z,18.63
2022-12-31T06:21:50.208Z,19.27
2022-12-31T06:24:20.346Z,18.17
2022-12-31T06:26:48.935Z,18.13
2022-12-31T06:29:18.180Z,19.85
2022-12-31T06:31:48.633Z,16.48
2022-12-31T06:34:19.154Z,24.33
2022-12-31T06:36:47.858Z,18.42
2022-12-31T06:39:16.476Z,21.02
2022-12-31T06:41:46.467Z,18.77
2022-12-31T06:44:15.632Z,20.60
2022-12-31T06:46:44.239Z,18.65
2022-12-31T06:49:13.186Z,19.60
2022-12-31T06:51:42.554Z,22.27
2022-12-31T06:54:11.114Z,15.43
2022-12-31T06:56:40.324Z,21.50
2022-12-31T06:59:23.701Z,21.48
2022-12-31T07:02:05.149Z,22.98
2022-12-31T07:05:02.473Z,21.33
2022-12-31T07:07:35.804Z,21.15
2022-12-31T07:10:14.377Z,23.48
2022-12-31T07:13:06.386Z,24.13
2022-12-31T07:15:52.449Z,23.52
2022-12-31T07:18:30.875Z,18.95
2022-12-31T07:21:01.556Z,19.50
2022-12-31T07:23:30.804Z,22.73
2022-12-31T07:26:06.360Z,24.15
2022-12-31T07:28:46.182Z,21.10
2022-12-31T07:31:26.469Z,19.08
2022-12-31T07:34:00.978Z,22.85
2022-12-31T07:36:54.926Z,17.75
2022-12-31T07:39:33.267Z,21.70
2022-12-31T07:42:09.138Z,20.98
2022-12-31T07:45:12.829Z,19.98
2022-12-31T07:47:43.518Z,16.42
2022-12-31T07:50:16.646Z,20.85
2022-12-31T07:52:46.181Z,20.48
2022-12-31T07:57:53.435Z,24.55
2022-12-31T08:00:27.316Z,18.67
2022-12-31T08:03:09.594Z,26.30
2022-12-31T08:06:09.009Z,21.20
2022-12-31T08:08:46.863Z,19.95
2022-12-31T08:11:20.474Z,18.40
2022-12-31T08:13:49.397Z,24.23
2022-12-31T08:16:18.547Z,23.40
2022-12-31T08:18:50.233Z,22.60
2022-12-31T08:21:35.230Z,22.23
2022-12-31T08:24:14.850Z,23.85
2022-12-31T08:29:35.643Z,19.13
2022-12-31T08:32:13.556Z,23.67
2022-12-31T08:34:53.805Z,28.33
2022-12-31T08:37:32.365Z,26.65
2022-12-31T08:40:16.543Z,24.77
2022-12-31T08:43:01.693Z,23.25
2022-12-31T08:45:37.984Z,25.70
2022-12-31T08:48:19.913Z,23.00
2022-12-31T08:50:50.583Z,26.80
2022-12-31T08:53:19.737Z,24.50
2022-12-31T08:55:51.415Z,21.83
2022-12-31T08:58:35.668Z,22.15
2022-12-31T09:01:07.360Z,22.55
2022-12-31T09:03:59.905Z,23.48
2022-12-31T09:06:34.852Z,23.95
2022-12-31T09:09:11.856Z,25.95
2022-12-31T09:11:52.629Z,25.83
2022-12-31T09:14:41.743Z,26.63
2022-12-31T09:17:21.279Z,28.98
2022-12-31T09:19:51.490Z,28.95
2022-12-31T09:22:22.197Z,27.85
2022-12-31T09:24:51.495Z,28.27
2022-12-31T09:27:27.963Z,30.10
2022-12-31T09:30:06.060Z,30.33
2022-12-31T09:32:42.768Z,32.40
2022-12-31T09:35:20.584Z,34.03
2022-12-31T09:37:52.539Z,26.42
2022-12-31T09:40:52.125Z,29.83
2022-12-31T09:44:00.919Z,28.98
2022-12-31T09:47:12.525Z,35.88
2022-12-31T09:50:07.512Z,28.10
2022-12-31T09:52:48.803Z,31.67
2022-12-31T09:55:35.553Z,28.50
2022-12-31T09:58:20.240Z,30.33
2022-12-31T10:00:53.689Z,29.38
2022-12-31T10:03:44.226Z,25.52
2022-12-31T10:06:23.441Z,31.60
2022-12-31T10:09:22.546Z,37.60
2022-12-31T10:12:17.673Z,34.13
2022-12-31T10:15:06.752Z,39.95
2022-12-31T10:17:54.230Z,36.30
2022-12-31T10:20:45.662Z,40.25
2022-12-31T10:23:40.154Z,41.10
2022-12-31T10:26:35.456Z,34.70
2022-12-31T10:29:19.409Z,31.80
2022-12-31T10:32:00.956Z,31.17
2022-12-31T10:34:39.473Z,31.80
2022-12-31T10:37:12.022Z,31.25
2022-12-31T10:39:52.065Z,29.83
2022-12-31T10:43:02.081Z,27.00
2022-12-31T10:46:00.262Z,32.80
2022-12-31T10:49:00.489Z,37.50
2022-12-31T10:52:35.566Z,36.63
2022-12-31T10:55:54.445Z,34.22
2022-12-31T10:58:56.895Z,31.67
2022-12-31T11:01:40.309Z,33.58
2022-12-31T11:04:56.995Z,35.83
2022-12-31T11:07:51.921Z,31.20
2022-12-31T11:10:46.975Z,32.38
2022-12-31T11:13:57.344Z,31.80
2022-12-31T11:16:47.838Z,29.92
2022-12-31T11:19:26.183Z,34.30
2022-12-31T11:22:14.089Z,32.60
2022-12-31T11:28:05.464Z,31.60
2022-12-31T11:30:45.915Z,31.83
2022-12-31T11:33:32.307Z,37.97
2022-12-31T11:39:24.576Z,34.70
2022-12-31T11:42:09.084Z,36.10
2022-12-31T11:44:50.662Z,35.85
2022-12-31T11:47:49.873Z,31.27
2022-12-31T11:50:36.520Z,37.40
2022-12-31T11:53:24.478Z,35.15
2022-12-31T11:56:04.427Z,36.58
2022-12-31T11:58:33.513Z,33.90
2022-12-31T12:01:27.479Z,35.00
2022-12-31T12:03:56.519Z,35.00
2022-12-31T12:06:30.653Z,37.80
2022-12-31T12:09:05.736Z,32.17
2022-12-31T12:11:38.686Z,30.48
2022-12-31T12:14:21.053Z,31.63
2022-12-31T12:17:00.697Z,37.00
2022-12-31T12:19:35.194Z,35.15
2022-12-31T12:22:14.410Z,30.92
2022-12-31T12:24:54.843Z,30.92
2022-12-31T12:27:25.995Z,34.22
2022-12-31T12:29:55.924Z,35.30
2022-12-31T12:32:26.949Z,36.63
2022-12-31T12:34:55.885Z,37.92
2022-12-31T12:37:32.466Z,36.75
2022-12-31T12:40:02.741Z,34.70
2022-12-31T12:42:31.850Z,31.83
2022-12-31T12:45:05.521Z,34.95
2022-12-31T12:47:35.744Z,33.67
2022-12-31T12:50:07.269Z,30.75
2022-12-31T12:53:00.538Z,38.45
2022-12-31T12:55:39.090Z,33.63
2022-12-31T12:58:19.284Z,35.00
2022-12-31T13:00:54.083Z,34.58
2022-12-31T13:07:26.005Z,36.67
2022-12-31T13:10:17.054Z,34.35
2022-12-31T13:13:22.809Z,39.05
2022-12-31T13:15:47.669Z,45.95
2022-12-31T13:18:34.204Z,38.28
2022-12-31T13:21:09.791Z,35.90
2022-12-31T13:23:44.478Z,41.70
2022-12-31T13:26:22.506Z,43.40
2022-12-31T13:28:53.888Z,41.55
2022-12-31T13:31:27.791Z,38.78
2022-12-31T13:34:00.600Z,51.78
2022-12-31T13:36:32.834Z,43.63
2022-12-31T13:39:09.305Z,47.35
2022-12-31T13:41:43.918Z,42.63
2022-12-31T13:44:18.157Z,48.15
2022-12-31T13:46:50.425Z,40.63
2022-12-31T13:49:25.664Z,51.40
2022-12-31T13:51:59.298Z,42.63
2022-12-31T13:54:37.865Z,49.97
2022-12-31T13:57:20.377Z,45.25
2022-12-31T13:59:53.902Z,49.90
2022-12-31T14:02:37.674Z,61.40
2022-12-31T14:05:15.542Z,55.67
2022-12-31T14:07:49.879Z,60.70
2022-12-31T14:10:23.171Z,53.75
2022-12-31T14:12:59.211Z,57.58
2022-12-31T14:15:33.694Z,51.95
2022-12-31T14:18:07.979Z,60.42
2022-12-31T14:20:48.205Z,55.03
2022-12-31T14:23:25.840Z,59.28
2022-12-31T14:25:58.319Z,66.13
2022-12-31T14:28:32.817Z,72.03
2022-12-31T14:31:12.512Z,67.65
2022-12-31T14:33:50.190Z,69.45
2022-12-31T14:36:29.274Z,66.60
2022-12-31T14:39:18.931Z,67.97
2022-12-31T14:44:35.912Z,62.08
2022-12-31T14:47:19.053Z,63.17
2022-12-31T14:49:54.455Z,62.40
2022-12-31T14:52:25.504Z,64.60
2022-12-31T14:55:22.248Z,68.05
2022-12-31T15:00:52.545Z,67.53
2022-12-31T15:03:27.071Z,71.55
2022-12-31T15:06:03.128Z,67.90
2022-12-31T15:08:48.423Z,70.28
2022-12-31T15:11:30.051Z,64.68
2022-12-31T15:14:20.480Z,65.50
2022-12-31T15:17:00.189Z,75.32
2022-12-31T15:22:31.759Z,65.45
2022-12-31T15:25:01.371Z,60.42
2022-12-31T15:32:51.932Z,74.97
2022-12-31T15:35:30.695Z,77.15
2022-12-31T15:38:01.403Z,71.17
2022-12-31T15:40:30.927Z,77.50
2022-12-31T15:43:04.512Z,82.90
2022-12-31T15:45:38.029Z,76.43
2022-12-31T15:48:15.614Z,85.93
2022-12-31T15:50:47.447Z,103.45
2022-12-31T15:53:27.680Z,96.78
2022-12-31T15:55:59.502Z,93.47
2022-12-31T15:58:33.015Z,91.65
2022-12-31T16:01:11.143Z,97.72
2022-12-31T16:03:45.640Z,88.90
2022-12-31T16:06:16.793Z,90.05
2022-12-31T16:08:47.920Z,101.20
2022-12-31T16:11:17.230Z,110.38
2022-12-31T16:13:52.172Z,80.55
2022-12-31T16:16:23.589Z,77.25
2022-12-31T16:18:54.529Z,65.13
2022-12-31T16:21:27.943Z,64.03
2022-12-31T16:23:58.847Z,62.42
2022-12-31T16:26:34.048Z,64.03
2022-12-31T16:29:05.489Z,65.60
2022-12-31T16:31:34.419Z,69.18
2022-12-31T16:34:16.198Z,59.80
2022-12-31T16:36:55.310Z,51.28
2022-12-31T16:39:28.603Z,62.80
2022-12-31T16:42:11.009Z,71.63
2022-12-31T16:44:39.647Z,71.50
2022-12-31T16:47:10.640Z,59.83
2022-12-31T16:49:43.022Z,62.17
2022-12-31T16:52:26.245Z,59.05
2022-12-31T16:55:18.839Z,59.75
2022-12-31T16:57:54.080Z,53.38
2022-12-31T17:00:25.127Z,59.58
2022-12-31T17:03:05.229Z,64.07
2022-12-31T17:05:37.773Z,61.78
2022-12-31T17:08:24.683Z,55.60
2022-12-31T17:10:56.588Z,55.00
2022-12-31T17:13:30.285Z,50.70
2022-12-31T17:16:00.533Z,55.83
2022-12-31T17:18:44.911Z,53.28
2022-12-31T17:21:15.333Z,55.33
2022-12-31T17:23:46.868Z,51.90
2022-12-31T17:26:23.367Z,60.05
2022-12-31T17:28:54.024Z,53.22
2022-12-31T17:31:35.383Z,56.47
2022-12-31T17:34:24.244Z,48.05
2022-12-31T17:37:18.329Z,50.67
2022-12-31T17:39:51.814Z,54.42
2022-12-31T17:42:32.650Z,49.22
2022-12-31T17:45:04.393Z,49.25
2022-12-31T17:47:38.500Z,43.95
2022-12-31T17:50:22.219Z,48.65
2022-12-31T17:52:53.775Z,48.10
2022-12-31T17:55:22.666Z,40.05
2022-12-31T17:57:53.801Z,37.83
2022-12-31T18:00:26.836Z,45.38
2022-12-31T18:02:55.867Z,40.25
2022-12-31T18:05:25.769Z,42.70
2022-12-31T18:07:57.016Z,43.63
2022-12-31T18:10:27.504Z,37.15
2022-12-31T18:12:56.418Z,42.00
2022-12-31T18:15:26.031Z,43.53
2022-12-31T18:17:54.650Z,43.78
2022-12-31T18:20:23.781Z,51.17
2022-12-31T18:22:53.041Z,49.45
2022-12-31T18:25:24.619Z,45.55
2022-12-31T18:27:53.987Z,49.58
2022-12-31T18:30:23.520Z,52.03
2022-12-31T18:38:15.631Z,49.13
2022-12-31T18:40:50.021Z,52.00
2022-12-31T18:43:20.243Z,51.15
2022-12-31T18:45:49.598Z,54.90
2022-12-31T18:48:18.544Z,44.42
2022-12-31T18:50:49.384Z,45.67
2022-12-31T18:53:20.608Z,40.55
2022-12-31T18:55:53.801Z,37.10
2022-12-31T18:58:23.764Z,31.95
2022-12-31T19:00:53.407Z,38.35
2022-12-31T19:05:52.880Z,36.00
2022-12-31T19:08:23.253Z,32.70
2022-12-31T19:10:54.163Z,32.35
2022-12-31T19:13:23.415Z,39.10
2022-12-31T19:15:53.366Z,41.05
2022-12-31T19:18:22.383Z,44.22
2022-12-31T19:20:52.516Z,36.67
2022-12-31T19:23:22.852Z,37.13
2022-12-31T19:25:53.349Z,35.35
2022-12-31T19:28:24.472Z,36.60
2022-12-31T19:30:54.242Z,41.78
2022-12-31T19:35:51.245Z,35.58
2022-12-31T19:38:22.975Z,44.50
2022-12-31T19:40:54.949Z,42.22
2022-12-31T19:43:25.090Z,39.50
2022-12-31T19:45:54.431Z,40.25
2022-12-31T19:48:32.323Z,44.85
2022-12-31T19:51:01.759Z,39.67
2022-12-31T19:53:31.627Z,39.78
2022-12-31T19:56:01.663Z,36.13
2022-12-31T19:58:31.644Z,40.95
2022-12-31T20:01:03.293Z,37.60
2022-12-31T20:03:33.928Z,38.03
2022-12-31T20:06:04.622Z,36.83
2022-12-31T20:08:33.859Z,34.33
2022-12-31T20:11:12.107Z,34.60
2022-12-31T20:13:41.861Z,36.08
2022-12-31T20:16:11.622Z,35.75
2022-12-31T20:18:42.780Z,45.08
2022-12-31T20:21:12.962Z,47.88
2022-12-31T20:23:42.163Z,46.28
2022-12-31T20:26:13.699Z,38.78
2022-12-31T20:28:42.472Z,60.95
2022-12-31T20:31:13.110Z,50.87
2022-12-31T20:33:42.318Z,39.53
2022-12-31T20:36:14.099Z,60.70
2022-12-31T20:38:43.032Z,39.83
2022-12-31T20:41:15.012Z,38.85
2022-12-31T20:43:44.132Z,43.10
2022-12-31T20:46:16.125Z,39.13
2022-12-31T20:48:45.980Z,56.10
2022-12-31T20:51:15.713Z,42.30
2022-12-31T20:53:48.998Z,35.58
2022-12-31T20:56:19.761Z,31.95
2022-12-31T20:58:48.984Z,35.75
2022-12-31T21:01:18.420Z,31.98
2022-12-31T21:06:34.795Z,33.25
2022-12-31T21:09:05.397Z,36.28
2022-12-31T21:11:53.070Z,30.00
2022-12-31T21:14:22.050Z,40.97
2022-12-31T21:16:51.000Z,27.23
2022-12-31T21:19:19.773Z,29.63
2022-12-31T21:21:49.921Z,29.17
2022-12-31T21:24:23.626Z,33.95
2022-12-31T21:26:56.707Z,29.17
2022-12-31T21:29:27.859Z,32.08
2022-12-31T21:31:59.959Z,31.48
2022-12-31T21:34:28.500Z,33.40
2022-12-31T21:36:57.174Z,36.00
2022-12-31T21:39:25.736Z,34.65
2022-12-31T21:41:55.738Z,45.05
2022-12-31T21:44:26.330Z,39.22
2022-12-31T21:47:39.825Z,34.42
2022-12-31T21:50:10.193Z,36.40
2022-12-31T21:52:38.758Z,38.10
2022-12-31T21:55:26.370Z,30.63
2022-12-31T22:01:03.210Z,43.47
2022-12-31T22:03:32.350Z,35.15
2022-12-31T22:06:03.105Z,41.00
2022-12-31T22:08:32.748Z,31.00
2022-12-31T22:11:01.498Z,43.00
2022-12-31T22:13:31.512Z,51.00
2022-12-31T22:16:05.376Z,38.45
2022-12-31T22:18:38.707Z,49.03
2022-12-31T22:21:15.733Z,54.42
2022-12-31T22:23:47.357Z,76.30
2022-12-31T22:26:17.969Z,81.57
2022-12-31T22:28:48.404Z,110.70
2022-12-31T22:31:18.922Z,80.47
2022-12-31T22:33:47.940Z,180.32
2022-12-31T22:36:18.483Z,416.77
2022-12-31T22:38:48.216Z,166.57
2022-12-31T22:43:50.150Z,134.65
2022-12-31T22:46:20.457Z,133.40
2022-12-31T22:48:49.926Z,92.70
2022-12-31T22:51:19.956Z,141.38
2022-12-31T22:53:49.136Z,74.47
2022-12-31T22:56:19.371Z,63.55
2022-12-31T22:58:49.503Z,64.45
2022-12-31T23:01:20.531Z,62.78
2022-12-31T23:03:51.257Z,58.20
2022-12-31T23:06:20.776Z,45.65
2022-12-31T23:09:03.924Z,40.05
2022-12-31T23:11:33.642Z,42.22
2022-12-31T23:17:31.065Z,39.33
2022-12-31T23:20:12.672Z,36.90
2022-12-31T23:22:58.757Z,19.85
2022-12-31T23:25:27.339Z,28.55
2022-12-31T23:27:55.900Z,33.75
2022-12-31T23:30:25.943Z,31.23
2022-12-31T23:32:54.539Z,46.58
2022-12-31T23:35:23.356Z,33.17
2022-12-31T23:37:51.987Z,53.65
2022-12-31T23:40:21.860Z,35.90
2022-12-31T23:42:51.197Z,25.10
2022-12-31T23:45:19.684Z,29.83
2022-12-31T23:47:49.710Z,36.25
2022-12-31T23:50:18.571Z,29.52
2022-12-31T23:52:47.059Z,24.85
2022-12-31T23:55:15.674Z,20.90
2022-12-31T23:57:44.525Z,42.67
